ADDS METAR Data INFO
IDs: Format: Raw Decoded Include TAF

Data at: 2024 UTC 22 Apr 2018

METAR for:KAOH (Lima/Allen Cnty, OH, US)
Text:KAOH 221953Z AUTO 05009G20KT 360V080 10SM CLR 17/00 A3027 RMK AO2 SLP252 T01720000
Temperature: 17.2°C ( 63°F)
Dewpoint: 0.0°C ( 32°F) [RH = 31%]
Pressure (altimeter):30.27 inches Hg (1025.1 mb) [Sea level pressure: 1025.2 mb]
Winds:from the NE (50 degrees) at 10 MPH (9 knots; 4.6 m/s) gusting to 23 MPH (20 knots; 10.3 m/s)
Visibility:10 or more sm (16+ km)
Ceiling:at least 12,000 feet AGL
Clouds:sky clear below 12,000 feet AGL
QC Flag:automated observation with no human augmentation